Time;durP1;ratioP1;P1;durP2;ratioP2;P2;SDS_P1;SDS_P2;PMS_P1;PMS_P2;Temp;Humidity;BMP_temperature;BMP_pressure;BME280_temperature;BME280_humidity;BME280_pressure;Samples;Min_cycle;Max_cycle;Signal;HPM_P1;HPM_P2
2022/01/23 00:01:14;;;;;;;33.28;17.02;;;;;;;1.94;56.13;101030.56;4907395;29;20055;-71
2022/01/23 00:03:46;;;;;;;24.73;13.70;;;;;;;1.96;56.14;101037.44;4908600;29;20051;-76
2022/01/23 00:06:14;;;;;;;22.92;12.80;;;;;;;1.98;56.00;101035.69;4909314;29;20570;-72
2022/01/23 00:08:41;;;;;;;23.83;12.13;;;;;;;1.98;56.37;101042.63;4908262;29;20658;-68
2022/01/23 00:11:08;;;;;;;26.23;12.75;;;;;;;1.98;56.36;101048.72;4909126;29;20087;-75
2022/01/23 00:17:15;;;;;;;25.67;13.25;;;;;;;2.00;56.29;101046.91;4908352;29;20107;-78
2022/01/23 00:19:08;;;;;;;24.42;12.15;;;;;;;2.01;56.29;101046.00;4988768;28;20082;-79
2022/01/23 00:21:37;;;;;;;31.25;17.42;;;;;;;1.98;56.11;101038.28;5022781;28;20052;-76
2022/01/23 00:32:22;;;;;;;20.70;9.93;;;;;;;1.97;56.29;101025.28;5053291;28;20067;-72
2022/01/23 00:34:49;;;;;;;16.92;9.65;;;;;;;2.03;56.27;101025.97;5051420;28;20045;-75
2022/01/23 00:37:16;;;;;;;22.40;8.98;;;;;;;2.08;56.00;101031.94;5049195;28;20124;-72
2022/01/23 00:39:43;;;;;;;23.35;10.02;;;;;;;2.10;56.11;101029.31;5056077;28;20080;-77
2022/01/23 00:42:11;;;;;;;25.65;10.75;;;;;;;2.15;56.05;101029.19;5062660;28;20128;-71
2022/01/23 00:44:39;;;;;;;23.77;14.57;;;;;;;2.03;55.84;101023.38;5055167;28;20076;-73
2022/01/23 00:47:11;;;;;;;21.60;9.18;;;;;;;2.10;55.94;101026.69;5036123;28;20045;-70
2022/01/23 00:49:38;;;;;;;25.25;12.60;;;;;;;2.07;56.03;101021.53;5050974;28;20064;-74
2022/01/23 00:52:06;;;;;;;29.23;12.90;;;;;;;2.03;55.96;101023.38;5051485;28;20056;-71
2022/01/23 00:54:33;;;;;;;22.63;12.98;;;;;;;2.00;55.84;101020.88;5049820;28;20056;-72
2022/01/23 00:57:00;;;;;;;23.20;12.30;;;;;;;2.05;55.86;101021.63;5049909;28;20168;-79
2022/01/23 00:59:27;;;;;;;27.98;13.13;;;;;;;2.06;55.88;101025.06;5048385;28;20073;-76
2022/01/23 01:01:55;;;;;;;26.13;13.48;;;;;;;1.98;56.03;101025.25;5047850;28;20507;-73
2022/01/23 01:04:22;;;;;;;22.25;12.35;;;;;;;1.94;56.11;101026.22;5048665;28;20698;-69
2022/01/23 01:06:49;;;;;;;19.80;11.52;;;;;;;1.91;56.27;101027.16;5049086;28;20067;-70
2022/01/23 01:09:16;;;;;;;22.92;9.45;;;;;;;1.84;56.34;101025.59;5050386;28;20045;-75
2022/01/23 01:14:34;;;;;;;19.90;9.60;;;;;;;1.82;56.48;101029.09;5043226;28;20055;-72
2022/01/23 01:17:11;;;;;;;23.77;7.63;;;;;;;1.86;56.23;101028.16;5046234;28;20075;-70
2022/01/23 01:30:42;;;;;;;19.73;11.60;;;;;;;1.74;56.52;101010.22;5046065;28;20144;-70
2022/01/23 01:33:20;;;;;;;17.08;10.15;;;;;;;1.79;56.35;101010.97;5046764;28;20060;-74
2022/01/23 01:35:54;;;;;;;16.75;9.77;;;;;;;1.71;56.48;101005.91;5045671;28;20465;-73
2022/01/23 01:38:21;;;;;;;20.17;10.15;;;;;;;1.69;56.44;101013.78;5046316;28;20072;-70
2022/01/23 01:40:49;;;;;;;17.50;8.73;;;;;;;1.63;56.80;101011.31;5046676;28;20060;-72
2022/01/23 01:43:15;;;;;;;17.08;10.00;;;;;;;1.68;56.47;101012.06;5046196;28;20071;-73
2022/01/23 01:45:43;;;;;;;16.48;11.13;;;;;;;1.63;56.73;101011.31;5045929;28;20079;-72
2022/01/23 01:48:15;;;;;;;17.15;9.48;;;;;;;1.66;56.92;101032.09;5045739;28;20712;-73
2022/01/23 01:50:46;;;;;;;15.38;8.63;;;;;;;1.71;56.50;101029.34;5046276;28;20515;-73
2022/01/23 01:53:13;;;;;;;14.98;8.98;;;;;;;1.68;56.55;101029.44;5046336;28;20146;-68
2022/01/23 01:55:44;;;;;;;18.65;11.27;;;;;;;1.67;56.75;101030.31;5046351;28;20072;-68
2022/01/23 01:58:33;;;;;;;14.82;9.00;;;;;;;1.66;56.72;101031.25;5046521;28;20132;-71
2022/01/23 02:01:04;;;;;;;23.70;11.07;;;;;;;1.67;56.60;101018.16;5046405;28;20386;-75
2022/01/23 02:09:11;;;;;;;20.80;9.82;;;;;;;1.60;56.63;101031.34;5049939;28;19927;-76
2022/01/23 02:12:01;;;;;;;19.67;9.77;;;;;;;1.54;57.08;101029.75;5059043;28;20049;-70
2022/01/23 02:14:38;;;;;;;18.55;11.27;;;;;;;1.53;57.03;101022.81;5055021;28;20056;-71
2022/01/23 02:17:19;;;;;;;15.80;9.88;;;;;;;1.47;57.20;101020.38;5057532;28;20049;-73
2022/01/23 02:22:54;;;;;;;20.63;9.15;;;;;;;1.50;57.08;101017.72;5059308;28;20044;-71
2022/01/23 02:50:35;;;;;;;21.95;10.07;;;;;;;1.47;56.96;101023.81;5058256;28;20041;-75
2022/01/23 02:50:46;;;;;;;17.10;10.30;;;;;;;1.50;56.78;101039.38;5049884;28;20623;-75
2022/01/23 02:56:02;;;;;;;20.63;9.27;;;;;;;1.48;57.05;101032.50;5047199;28;20068;-77
2022/01/23 02:58:35;;;;;;;14.10;9.23;;;;;;;1.44;57.17;101049.06;5046083;28;20103;-74
2022/01/23 03:01:14;;;;;;;19.13;10.13;;;;;;;1.40;57.21;101045.69;5046831;28;20053;-73
2022/01/23 03:03:45;;;;;;;17.85;9.30;;;;;;;1.42;56.94;101045.66;5046321;28;20127;-74
2022/01/23 03:06:23;;;;;;;18.20;10.43;;;;;;;1.39;57.05;101053.50;5050190;28;20044;-70
2022/01/23 03:09:23;;;;;;;17.13;8.40;;;;;;;1.45;56.94;101059.44;5049975;28;20045;-76
2022/01/23 03:12:07;;;;;;;14.52;8.52;;;;;;;1.43;57.09;101063.00;5033903;28;20049;-72
2022/01/23 03:14:45;;;;;;;14.40;7.70;;;;;;;1.42;57.00;101075.13;5051236;28;20053;-75
2022/01/23 03:28:22;;;;;;;12.73;8.35;;;;;;;1.42;56.91;101064.72;5050224;28;20053;-81
2022/01/23 03:31:04;;;;;;;14.15;7.85;;;;;;;1.35;57.39;101068.34;5050244;28;20517;-73
2022/01/23 03:33:32;;;;;;;15.27;7.57;;;;;;;1.40;57.45;101073.47;5035215;28;20044;-72
2022/01/23 03:35:59;;;;;;;12.65;7.30;;;;;;;1.40;57.33;101079.50;5032674;28;20075;-72
2022/01/23 03:38:26;;;;;;;18.77;9.63;;;;;;;1.41;57.35;101083.00;5049861;28;20404;-81
2022/01/23 03:40:55;;;;;;;18.98;10.32;;;;;;;1.39;57.30;101077.81;5050960;28;20140;-69
2022/01/23 03:43:28;;;;;;;19.60;9.15;;;;;;;1.36;57.24;101087.44;5050940;28;20045;-76
2022/01/23 03:46:09;;;;;;;16.42;9.70;;;;;;;1.38;57.51;101096.91;5049876;28;20056;-78
2022/01/23 03:51:33;;;;;;;21.92;10.88;;;;;;;1.46;57.30;101101.94;4968294;28;20133;-73
2022/01/23 03:54:00;;;;;;;21.13;9.35;;;;;;;1.46;57.69;101099.34;4969479;28;20527;-73
2022/01/23 03:56:30;;;;;;;22.67;12.25;;;;;;;1.43;57.75;101099.44;4968058;28;20059;-73
2022/01/23 03:58:58;;;;;;;18.67;11.57;;;;;;;1.43;57.45;101107.25;4967437;28;20074;-71
2022/01/23 04:01:25;;;;;;;17.38;9.65;;;;;;;1.45;57.48;101110.66;4968879;28;20316;-71
2022/01/23 04:03:56;;;;;;;21.55;8.77;;;;;;;1.45;57.54;101108.06;4968212;28;20550;-76
2022/01/23 04:06:23;;;;;;;20.15;10.82;;;;;;;1.43;57.66;101115.06;4967822;28;20506;-73
2022/01/23 04:08:50;;;;;;;17.40;9.15;;;;;;;1.44;57.74;101103.72;4967775;28;20043;-70
2022/01/23 04:11:17;;;;;;;25.63;9.95;;;;;;;1.48;57.41;101105.41;4967535;28;20081;-73
2022/01/23 04:13:50;;;;;;;18.63;9.75;;;;;;;1.46;57.79;101108.03;4968181;28;20061;-74
2022/01/23 04:16:40;;;;;;;16.60;9.45;;;;;;;1.46;57.53;101108.03;4967951;28;20051;-74
2022/01/23 04:33:11;;;;;;;17.25;8.52;;;;;;;1.51;57.62;101142.66;5048464;28;20139;-71
2022/01/23 04:45:13;;;;;;;17.17;9.07;;;;;;;1.51;57.69;101149.56;5049092;28;20045;-76
2022/01/23 05:00:35;;;;;;;25.23;13.90;;;;;;;1.63;57.63;101151.09;5050646;28;20052;-71
2022/01/23 05:05:58;;;;;;;26.80;15.23;;;;;;;1.56;57.91;101149.50;4971604;28;20539;-73
2022/01/23 05:08:27;;;;;;;22.85;13.70;;;;;;;1.58;57.85;101145.97;4968978;28;20531;-77
2022/01/23 05:10:58;;;;;;;20.48;12.15;;;;;;;1.61;58.06;101152.88;4967247;28;20047;-70
2022/01/23 05:13:26;;;;;;;32.65;14.43;;;;;;;1.67;57.76;101153.56;4967760;28;20102;-70
2022/01/23 05:15:53;;;;;;;26.58;15.77;;;;;;;1.70;57.70;101137.88;4967104;28;20042;-71
2022/01/23 05:18:22;;;;;;;20.45;11.23;;;;;;;1.74;57.54;101130.88;4968271;28;20133;-78
2022/01/23 05:20:57;;;;;;;27.33;13.35;;;;;;;1.72;57.80;101145.66;4969049;28;20082;-71
2022/01/23 05:23:27;;;;;;;23.42;13.00;;;;;;;1.68;57.89;101157.06;4966637;28;20078;-75
2022/01/23 05:25:55;;;;;;;22.35;12.85;;;;;;;1.61;57.87;101153.72;4922257;28;20050;-72
2022/01/23 05:28:22;;;;;;;23.75;12.70;;;;;;;1.63;57.79;101154.53;4966969;28;20125;-77
2022/01/23 05:30:49;;;;;;;20.83;10.88;;;;;;;1.61;57.81;101169.34;4964847;28;20635;-71
2022/01/23 05:33:16;;;;;;;24.10;13.98;;;;;;;1.67;57.90;101178.75;4966999;28;20055;-71
2022/01/23 05:35:44;;;;;;;25.92;12.52;;;;;;;1.64;57.90;101187.50;4967052;28;20050;-70
2022/01/23 05:38:11;;;;;;;33.00;18.05;;;;;;;1.63;58.06;101193.59;4966142;28;20051;-70
2022/01/23 05:40:40;;;;;;;34.72;17.98;;;;;;;1.69;57.85;101200.41;4967225;28;20086;-75
2022/01/23 05:43:07;;;;;;;23.38;12.60;;;;;;;1.69;57.76;101198.69;5010075;28;20135;-73
2022/01/23 05:45:37;;;;;;;19.48;11.40;;;;;;;1.74;57.68;101195.97;5047589;28;20048;-75
2022/01/23 05:48:05;;;;;;;27.27;16.88;;;;;;;1.70;57.92;101208.22;5049490;28;20634;-79
2022/01/23 05:50:32;;;;;;;22.55;13.95;;;;;;;1.68;57.90;101215.19;5048762;28;20041;-77
2022/01/23 05:53:00;;;;;;;27.27;17.00;;;;;;;1.71;57.97;101209.06;5046749;28;20504;-76
2022/01/23 05:55:27;;;;;;;22.20;13.52;;;;;;;1.72;57.93;101214.25;5047423;28;20063;-71
2022/01/23 05:57:54;;;;;;;25.42;14.07;;;;;;;1.74;57.83;101215.97;5046407;28;20440;-73
2022/01/23 06:00:21;;;;;;;23.73;14.55;;;;;;;1.70;57.95;101209.97;5045073;28;20108;-71
2022/01/23 06:02:49;;;;;;;25.70;13.82;;;;;;;1.70;58.16;101218.63;5046908;28;20059;-75
2022/01/23 06:05:15;;;;;;;53.67;28.45;;;;;;;1.74;57.63;101215.97;5047137;28;20560;-74
2022/01/23 06:07:42;;;;;;;42.90;19.70;;;;;;;1.76;57.61;101212.44;5046603;28;20048;-71
2022/01/23 06:10:20;;;;;;;33.08;20.42;;;;;;;1.69;57.90;101218.66;5053872;28;20056;-71
2022/01/23 06:12:48;;;;;;;21.55;12.43;;;;;;;1.71;57.87;101214.25;5049726;28;20049;-74
2022/01/23 06:15:15;;;;;;;34.05;16.95;;;;;;;1.75;57.77;101215.06;5051157;28;20109;-75
2022/01/23 06:17:42;;;;;;;35.25;15.38;;;;;;;1.81;57.80;101217.56;5047708;28;20094;-75
2022/01/23 06:20:11;;;;;;;33.10;15.32;;;;;;;1.75;57.76;101221.16;5047204;28;20136;-73
2022/01/23 06:22:38;;;;;;;31.55;14.48;;;;;;;1.69;57.94;101224.75;5045837;28;20125;-75
2022/01/23 06:25:09;;;;;;;38.10;19.75;;;;;;;1.69;58.01;101227.34;5047396;28;20413;-73
2022/01/23 06:27:37;;;;;;;34.28;17.50;;;;;;;1.75;57.90;101226.34;5048670;28;20041;-75
2022/01/23 06:30:06;;;;;;;30.10;16.83;;;;;;;1.72;57.81;101234.22;5052474;28;20075;-77
2022/01/23 06:32:34;;;;;;;23.35;15.10;;;;;;;1.77;57.68;101229.78;5055125;28;20500;-76
2022/01/23 06:35:01;;;;;;;24.70;16.85;;;;;;;1.72;57.93;101235.06;5046756;28;20140;-73
2022/01/23 06:37:28;;;;;;;43.38;20.77;;;;;;;1.81;57.80;101233.19;5047940;28;20445;-76
2022/01/23 06:39:55;;;;;;;37.88;22.60;;;;;;;1.81;57.81;101243.59;5056181;28;20045;-75
2022/01/23 06:42:22;;;;;;;33.40;15.20;;;;;;;1.81;57.85;101254.03;5053318;28;20128;-75
2022/01/23 06:44:51;;;;;;;42.47;21.45;;;;;;;1.82;57.76;101250.50;5044878;28;20087;-74
2022/01/23 06:47:19;;;;;;;35.83;21.70;;;;;;;1.81;57.80;101247.06;5045151;28;20501;-72
2022/01/23 06:49:48;;;;;;;44.15;23.85;;;;;;;1.82;57.65;101255.72;5026187;28;20102;-71
2022/01/23 06:52:15;;;;;;;45.08;24.08;;;;;;;1.87;57.58;101259.09;5044302;28;20478;-73
2022/01/23 06:54:42;;;;;;;27.92;18.92;;;;;;;1.82;57.87;101258.31;5042817;28;20568;-73
2022/01/23 06:57:12;;;;;;;43.55;26.60;;;;;;;1.81;57.82;101254.88;5043805;28;20051;-72
2022/01/23 06:59:40;;;;;;;45.25;26.58;;;;;;;1.75;58.22;101248.91;5042848;28;20110;-74
2022/01/23 07:02:09;;;;;;;37.97;23.05;;;;;;;1.78;58.16;101259.28;5043720;28;20059;-75
2022/01/23 07:04:36;;;;;;;43.08;22.65;;;;;;;1.73;58.27;101264.59;5023240;28;20064;-70
2022/01/23 07:07:03;;;;;;;33.45;20.25;;;;;;;1.82;58.05;101279.16;5023611;28;20046;-75
2022/01/23 07:09:30;;;;;;;32.95;21.60;;;;;;;1.88;57.94;101273.84;5023378;28;20412;-72
2022/01/23 07:11:57;;;;;;;30.85;19.73;;;;;;;1.91;57.94;101279.84;5022712;28;20523;-74
2022/01/23 07:14:24;;;;;;;30.95;16.45;;;;;;;2.00;57.64;101286.63;5022580;28;20641;-72
2022/01/23 07:16:51;;;;;;;36.38;23.58;;;;;;;2.00;57.76;101291.84;5023335;28;20047;-73
2022/01/23 07:19:19;;;;;;;36.13;20.90;;;;;;;2.10;57.55;101298.56;5023411;28;20045;-73
2022/01/23 07:21:48;;;;;;;36.22;21.67;;;;;;;2.09;57.34;101296.03;5024479;28;20670;-71
2022/01/23 07:24:14;;;;;;;36.42;18.33;;;;;;;2.11;57.50;101315.09;5022122;28;20049;-74
2022/01/23 07:26:42;;;;;;;27.27;17.58;;;;;;;2.08;57.22;101323.81;4987408;28;20046;-73
2022/01/23 07:29:09;;;;;;;27.65;14.80;;;;;;;2.14;57.41;101311.53;5020123;28;20045;-70
2022/01/23 07:31:57;;;;;;;39.92;21.85;;;;;;;2.18;57.08;101314.06;5022386;28;20110;-72
2022/01/23 07:34:27;;;;;;;30.55;16.65;;;;;;;2.29;57.00;101311.25;5022663;28;20108;-73
2022/01/23 07:36:54;;;;;;;27.30;16.98;;;;;;;2.38;56.84;101324.06;5021885;28;20080;-72
2022/01/23 07:39:21;;;;;;;31.13;19.17;;;;;;;2.33;56.67;101322.47;5020749;28;20049;-70
2022/01/23 07:41:48;;;;;;;30.30;19.80;;;;;;;2.32;56.55;101329.41;5022802;28;20048;-71
2022/01/23 07:44:15;;;;;;;28.85;17.42;;;;;;;2.45;56.63;101322.19;5021523;28;20052;-68
2022/01/23 07:46:42;;;;;;;29.70;17.33;;;;;;;2.46;56.44;101327.34;5021727;28;20056;-72
2022/01/23 07:49:10;;;;;;;29.67;17.10;;;;;;;2.52;56.37;101335.94;5021773;28;20085;-69
2022/01/23 07:51:38;;;;;;;23.38;15.30;;;;;;;2.57;56.24;101326.28;5025435;28;20124;-69
2022/01/23 07:54:09;;;;;;;27.35;17.63;;;;;;;2.53;56.23;101335.06;5025194;28;20046;-72
2022/01/23 07:56:38;;;;;;;27.20;18.17;;;;;;;2.54;56.28;101345.47;5025211;28;20045;-75
2022/01/23 07:59:05;;;;;;;27.10;15.30;;;;;;;2.52;56.32;101347.25;5022381;28;20671;-72
2022/01/23 08:01:32;;;;;;;27.67;19.10;;;;;;;2.56;56.25;101355.88;5023930;28;20045;-73
2022/01/23 08:03:59;;;;;;;30.38;15.95;;;;;;;2.61;56.20;101351.38;5035424;28;20084;-72
2022/01/23 08:06:32;;;;;;;28.48;17.30;;;;;;;2.57;56.04;101365.41;5044227;28;20071;-74
2022/01/23 08:09:00;;;;;;;31.77;17.85;;;;;;;2.58;56.16;101369.75;5044297;28;20485;-74
2022/01/23 08:11:27;;;;;;;28.30;16.70;;;;;;;2.70;56.04;101377.25;5045448;28;20041;-75
2022/01/23 08:13:54;;;;;;;25.58;15.65;;;;;;;2.70;55.90;101387.69;5049358;28;20132;-76
2022/01/23 08:16:21;;;;;;;24.70;16.30;;;;;;;2.85;55.46;101392.59;5046689;28;20047;-73
2022/01/23 08:18:49;;;;;;;28.10;16.58;;;;;;;2.74;55.49;101389.38;5047184;28;20059;-74
2022/01/23 08:21:16;;;;;;;26.48;15.77;;;;;;;2.81;55.37;101380.53;5037288;28;20053;-75
2022/01/23 08:23:43;;;;;;;23.83;15.75;;;;;;;2.81;55.54;101385.75;5034853;28;20052;-74
2022/01/23 08:26:20;;;;;;;27.98;16.17;;;;;;;2.92;55.44;101387.22;5031152;28;20045;-75
2022/01/23 08:28:47;;;;;;;29.80;17.65;;;;;;;3.03;55.18;101393.09;5038190;28;20115;-79
2022/01/23 08:31:14;;;;;;;22.67;15.05;;;;;;;2.99;55.08;101387.06;5036704;28;20041;-75
2022/01/23 08:33:43;;;;;;;27.80;17.55;;;;;;;2.94;55.14;101388.09;5019927;28;20083;-77
2022/01/23 08:36:09;;;;;;;22.63;13.95;;;;;;;2.95;55.08;101387.16;5032542;28;20050;-72
2022/01/23 08:38:37;;;;;;;18.80;12.48;;;;;;;2.82;55.16;101387.44;5035873;28;20045;-77
2022/01/23 08:43:51;;;;;;;23.52;13.73;;;;;;;2.90;55.35;101396.84;5034911;28;20392;-74
2022/01/23 08:46:20;;;;;;;20.80;13.30;;;;;;;2.94;55.28;101401.97;5029321;28;20133;-74
2022/01/23 08:48:47;;;;;;;22.40;14.35;;;;;;;2.92;55.28;101405.50;5034045;28;20044;-75
2022/01/23 08:51:14;;;;;;;22.73;14.30;;;;;;;2.86;55.32;101414.31;5033137;28;20067;-76
2022/01/23 08:53:41;;;;;;;26.65;13.98;;;;;;;2.84;55.50;101416.13;5032799;28;20125;-71
2022/01/23 08:56:10;;;;;;;22.65;13.85;;;;;;;2.84;55.53;101429.16;5033382;28;20541;-74
2022/01/23 08:58:37;;;;;;;19.58;13.00;;;;;;;2.83;55.46;101435.28;5026541;28;20044;-74
2022/01/23 09:01:05;;;;;;;19.05;12.18;;;;;;;2.84;55.61;101445.66;5033456;28;20442;-74
2022/01/23 09:03:32;;;;;;;17.20;10.95;;;;;;;2.99;55.59;101447.09;5029791;28;20129;-73
2022/01/23 09:05:59;;;;;;;20.73;12.27;;;;;;;3.03;55.36;101442.69;5031212;28;20105;-71
2022/01/23 09:08:27;;;;;;;23.30;13.73;;;;;;;3.05;55.32;101446.09;5035450;28;20057;-72
2022/01/23 09:10:58;;;;;;;19.92;13.75;;;;;;;2.96;55.24;101446.31;5030934;28;20129;-74
2022/01/23 09:13:51;;;;;;;19.15;13.10;;;;;;;2.94;55.47;101454.19;5034439;28;20158;-74
2022/01/23 09:16:20;;;;;;;19.70;13.15;;;;;;;2.99;55.38;101454.06;5035222;28;20045;-74
2022/01/23 09:18:47;;;;;;;21.98;11.15;;;;;;;3.00;55.41;101453.19;5030568;28;20132;-73
2022/01/23 09:21:14;;;;;;;21.15;12.27;;;;;;;3.04;55.34;101454.81;5016523;28;20060;-76
2022/01/23 09:23:41;;;;;;;19.42;12.82;;;;;;;3.03;55.46;101459.19;5033136;28;20045;-73
2022/01/23 09:26:13;;;;;;;22.15;15.73;;;;;;;3.08;55.03;101453.00;5030070;28;20038;-73
2022/01/23 09:28:43;;;;;;;29.00;13.98;;;;;;;3.20;55.25;101460.56;5039836;28;20079;-77
2022/01/23 09:31:24;;;;;;;20.23;13.40;;;;;;;3.27;55.11;101458.69;5052360;28;20073;-80
2022/01/23 09:33:53;;;;;;;17.13;12.50;;;;;;;3.25;54.99;101453.50;5037669;28;20072;-75
2022/01/23 09:36:20;;;;;;;26.02;15.82;;;;;;;3.23;55.07;101445.69;5052451;28;20483;-80
2022/01/23 09:38:47;;;;;;;20.95;12.75;;;;;;;3.31;55.25;101458.56;5042691;28;20050;-74
2022/01/23 09:41:18;;;;;;;22.10;15.75;;;;;;;3.33;55.00;101451.56;5023305;28;20068;-77
2022/01/23 09:43:47;;;;;;;22.23;15.20;;;;;;;3.37;54.93;101450.59;5037080;28;20389;-79
2022/01/23 09:46:16;;;;;;;22.70;14.65;;;;;;;3.39;54.81;101448.81;5014116;28;20052;-75
2022/01/23 09:48:46;;;;;;;25.90;17.63;;;;;;;3.58;54.46;101449.25;5052244;28;20125;-77
2022/01/23 09:51:16;;;;;;;26.75;16.15;;;;;;;3.78;54.25;101446.13;5056217;28;20064;-76
2022/01/23 09:53:44;;;;;;;23.50;15.93;;;;;;;3.72;54.03;101442.81;5063308;28;20088;-79
2022/01/23 09:56:14;;;;;;;21.27;14.57;;;;;;;3.67;54.44;101440.28;5055843;28;20379;-74
2022/01/23 09:58:42;;;;;;;20.98;12.60;;;;;;;3.71;53.98;101441.06;5054408;28;20065;-75
2022/01/23 10:01:11;;;;;;;24.75;16.10;;;;;;;3.76;54.14;101439.22;5058021;28;20842;-75
2022/01/23 10:03:38;;;;;;;26.83;15.23;;;;;;;3.85;54.18;101438.13;5059920;28;20043;-75
2022/01/23 10:06:08;;;;;;;19.38;12.40;;;;;;;3.92;53.61;101430.06;5044540;28;20222;-78
2022/01/23 10:08:38;;;;;;;22.58;14.55;;;;;;;3.87;53.43;101431.97;5061641;28;20064;-74
2022/01/23 10:11:09;;;;;;;20.80;13.20;;;;;;;3.92;53.42;101437.91;5063043;28;20033;-76
2022/01/23 10:13:38;;;;;;;22.58;12.88;;;;;;;3.93;53.26;101431.81;5062985;28;20048;-76
2022/01/23 10:16:06;;;;;;;20.77;14.77;;;;;;;3.97;53.31;101441.28;5061010;28;20084;-77
2022/01/23 10:18:33;;;;;;;21.70;14.00;;;;;;;3.93;53.32;101437.03;5063731;28;20080;-76
2022/01/23 10:21:02;;;;;;;20.77;13.57;;;;;;;3.90;53.30;101447.56;5045939;28;20063;-75
2022/01/23 10:23:30;;;;;;;26.98;18.20;;;;;;;4.08;53.16;101434.91;5054985;28;20124;-77
2022/01/23 10:25:59;;;;;;;30.02;19.58;;;;;;;4.13;53.09;101443.50;5057641;28;20048;-75
2022/01/23 10:28:29;;;;;;;33.63;19.25;;;;;;;4.11;53.17;101443.53;5058307;28;20037;-75
2022/01/23 10:31:03;;;;;;;36.00;22.92;;;;;;;4.10;53.27;101438.34;5048742;28;20042;-74
2022/01/23 10:33:33;;;;;;;29.42;18.58;;;;;;;4.01;53.67;101437.69;5046110;28;20044;-76
2022/01/23 10:36:04;;;;;;;29.90;20.15;;;;;;;3.99;53.75;101436.88;5046985;28;20050;-79
2022/01/23 10:38:34;;;;;;;34.45;19.83;;;;;;;3.93;53.83;101439.66;5051288;28;20079;-77
2022/01/23 10:41:28;;;;;;;29.75;17.83;;;;;;;3.95;53.84;101442.22;5052465;28;20097;-79
2022/01/23 10:47:29;;;;;;;23.52;12.60;;;;;;;4.11;53.58;101440.94;5031976;28;20049;-73
2022/01/23 10:49:58;;;;;;;25.70;17.48;;;;;;;4.20;53.32;101445.06;5045144;28;20362;-73
2022/01/23 10:52:32;;;;;;;22.98;15.05;;;;;;;4.16;53.51;101446.91;5040542;28;20106;-73
2022/01/23 10:55:00;;;;;;;26.10;17.83;;;;;;;4.17;53.44;101445.13;5039444;28;20044;-73
2022/01/23 10:58:03;;;;;;;29.75;15.30;;;;;;;4.22;53.78;101449.34;5036152;28;20493;-75
2022/01/23 11:00:32;;;;;;;33.38;18.92;;;;;;;4.12;53.52;101453.09;5022487;28;20116;-71
2022/01/23 11:03:02;;;;;;;39.88;19.40;;;;;;;4.03;53.80;101448.09;5034855;28;20064;-78
2022/01/23 11:05:33;;;;;;;28.05;15.30;;;;;;;4.11;53.97;101456.63;5036755;28;20042;-76
2022/01/23 11:08:01;;;;;;;31.98;15.43;;;;;;;4.15;53.82;101462.63;5026440;28;20081;-73
2022/01/23 11:10:29;;;;;;;23.92;15.35;;;;;;;4.12;53.53;101465.31;5034296;28;20045;-75
2022/01/23 11:18:40;;;;;;;30.83;17.60;;;;;;;4.15;53.91;101455.63;5032945;28;20060;-75
2022/01/23 11:21:16;;;;;;;30.20;16.73;;;;;;;4.18;53.67;101458.16;5018227;28;20557;-78
2022/01/23 11:23:44;;;;;;;29.67;17.10;;;;;;;4.13;53.82;101464.44;5036634;28;20045;-77
2022/01/23 11:26:14;;;;;;;28.20;15.27;;;;;;;4.12;54.04;101470.53;5041233;28;20103;-75
2022/01/23 11:28:47;;;;;;;30.75;19.65;;;;;;;4.14;54.01;101472.22;5034450;28;20401;-73
2022/01/23 11:31:18;;;;;;;27.83;17.10;;;;;;;4.16;53.77;101466.94;5020186;28;20132;-72
2022/01/23 11:33:46;;;;;;;25.08;15.65;;;;;;;4.21;53.72;101472.91;5032756;28;20048;-74
2022/01/23 11:36:17;;;;;;;22.75;15.88;;;;;;;4.18;53.74;101463.41;5046915;28;20081;-74
2022/01/23 11:38:46;;;;;;;24.73;15.60;;;;;;;4.12;53.67;101467.91;5047431;28;20128;-73
2022/01/23 11:55:33;;;;;;;38.90;23.05;;;;;;;4.26;54.05;101457.94;4896698;29;20131;-74
2022/01/23 11:58:03;;;;;;;37.05;21.83;;;;;;;4.20;54.14;101456.38;4903366;29;20052;-76
2022/01/23 12:00:34;;;;;;;38.40;23.60;;;;;;;4.21;54.25;101459.84;4899115;29;20119;-78
2022/01/23 12:03:10;;;;;;;38.72;22.73;;;;;;;4.16;54.19;101457.34;4911132;29;20060;-77
2022/01/23 12:05:41;;;;;;;40.60;23.85;;;;;;;4.11;54.43;101468.84;4912079;29;20128;-78
2022/01/23 12:08:27;;;;;;;44.53;26.90;;;;;;;4.09;54.61;101471.50;4905846;29;20176;-78
2022/01/23 12:17:17;;;;;;;35.90;21.15;;;;;;;4.28;53.56;101479.69;4904538;29;20632;-76
2022/01/23 12:19:49;;;;;;;31.23;20.33;;;;;;;4.23;53.61;101489.41;4905154;28;20056;-75
2022/01/23 12:22:48;;;;;;;34.58;22.05;;;;;;;4.26;53.96;101489.34;4966132;28;20132;-73
2022/01/23 12:25:23;;;;;;;27.35;15.27;;;;;;;4.35;53.59;101486.47;5038800;28;20059;-77
2022/01/23 12:28:28;;;;;;;27.35;17.73;;;;;;;4.13;53.68;101485.34;5036330;28;20084;-73
2022/01/23 12:30:56;;;;;;;28.77;16.73;;;;;;;4.01;53.83;101487.34;4948265;28;20130;-72
2022/01/23 12:33:46;;;;;;;30.38;18.80;;;;;;;4.07;54.05;101488.97;4954995;28;20058;-76
2022/01/23 12:36:23;;;;;;;31.02;17.60;;;;;;;4.10;53.86;101486.25;4949406;28;20134;-74
2022/01/23 12:38:55;;;;;;;35.40;22.42;;;;;;;4.08;53.83;101485.44;4908546;29;20051;-73
2022/01/23 12:41:30;;;;;;;34.13;19.70;;;;;;;4.16;53.87;101490.47;4934762;28;20054;-76
2022/01/23 12:43:59;;;;;;;32.08;19.23;;;;;;;4.22;53.46;101500.78;4938571;28;20043;-73
2022/01/23 12:46:35;;;;;;;32.83;22.08;;;;;;;4.16;53.86;101498.31;4950133;29;20276;-78
2022/01/23 12:49:19;;;;;;;32.10;17.48;;;;;;;4.39;53.54;101508.19;4946182;29;20133;-80
2022/01/23 12:51:48;;;;;;;28.55;18.13;;;;;;;4.48;53.13;101513.16;4944900;29;20059;-75
2022/01/23 12:54:35;;;;;;;30.10;18.77;;;;;;;4.43;53.25;101508.94;4948367;29;20616;-69
2022/01/23 12:57:12;;;;;;;28.05;19.88;;;;;;;4.25;53.39;101518.13;4928911;29;20728;-71
2022/01/23 12:59:42;;;;;;;37.20;21.05;;;;;;;4.09;53.74;101530.75;4939462;29;20055;-77
2022/01/23 13:02:15;;;;;;;39.83;21.38;;;;;;;4.06;54.18;101530.84;5009855;28;20124;-74
2022/01/23 13:04:48;;;;;;;41.05;22.48;;;;;;;4.08;54.14;101521.19;5040173;28;20213;-76
2022/01/23 13:07:37;;;;;;;31.25;19.20;;;;;;;4.02;54.18;101540.50;5025201;28;20123;-71
2022/01/23 13:10:22;;;;;;;29.45;17.17;;;;;;;4.08;54.00;101544.72;5045077;28;20107;-77
2022/01/23 13:12:55;;;;;;;28.20;18.83;;;;;;;4.12;53.71;101536.75;5023998;28;20045;-73
2022/01/23 13:18:17;;;;;;;28.38;18.10;;;;;;;4.00;53.87;101558.84;5024583;28;20049;-75
2022/01/23 13:26:56;;;;;;;24.52;15.60;;;;;;;4.03;53.82;101550.06;5028711;28;20179;-75
2022/01/23 13:32:15;;;;;;;19.60;14.60;;;;;;;3.82;53.86;101554.06;5030200;28;20109;-77
2022/01/23 13:34:48;;;;;;;19.83;10.45;;;;;;;3.81;53.59;101554.94;5041020;28;20049;-74
2022/01/23 13:37:19;;;;;;;23.98;14.13;;;;;;;3.84;54.07;101554.88;5025873;28;20099;-79
2022/01/23 13:39:52;;;;;;;19.75;11.52;;;;;;;3.91;53.70;101563.44;5005572;28;20055;-76
2022/01/23 13:42:37;;;;;;;26.48;15.35;;;;;;;3.92;53.44;101563.38;5024958;28;20049;-75
2022/01/23 13:54:04;;;;;;;17.42;12.48;;;;;;;3.83;53.35;101561.00;4997520;28;20050;-73
2022/01/23 13:59:27;;;;;;;31.98;18.90;;;;;;;3.71;53.75;101561.28;4921716;29;20068;-75
2022/01/23 14:02:09;;;;;;;30.83;16.90;;;;;;;3.72;53.81;101561.25;4922559;29;20050;-72
2022/01/23 14:04:38;;;;;;;34.72;23.33;;;;;;;3.77;53.92;101561.16;4921808;29;20104;-72
2022/01/23 14:07:06;;;;;;;25.50;15.02;;;;;;;3.77;53.86;101555.91;4929326;29;20119;-72
2022/01/23 14:09:40;;;;;;;23.33;16.98;;;;;;;3.71;54.20;101554.31;4928136;29;20122;-75
2022/01/23 14:12:08;;;;;;;18.23;13.63;;;;;;;3.69;54.26;101557.84;4924968;29;20052;-71
2022/01/23 14:14:36;;;;;;;24.38;15.27;;;;;;;3.72;54.30;101557.78;4919410;29;20578;-70
2022/01/23 14:17:13;;;;;;;22.48;16.42;;;;;;;3.74;54.61;101561.22;4919664;29;20135;-71
2022/01/23 14:19:40;;;;;;;26.75;16.50;;;;;;;3.66;54.62;101566.63;4918544;29;20139;-71
2022/01/23 14:22:07;;;;;;;27.70;17.17;;;;;;;3.66;54.78;101564.00;4918060;29;20577;-72
2022/01/23 14:24:37;;;;;;;24.77;15.85;;;;;;;3.64;54.89;101561.44;4918969;29;20065;-72